sensor_id;sensor_type;location;lat;lon;timestamp;P1;durP1;ratioP1;P2;durP2;ratioP2
4646;SDS011;2336;47.822;7.564;2022-09-27T00:00:39;0.90;;;0.90;;
4646;SDS011;2336;47.822;7.564;2022-09-27T00:03:06;0.70;;;0.70;;
4646;SDS011;2336;47.822;7.564;2022-09-27T00:05:35;1.00;;;1.00;;
4646;SDS011;2336;47.822;7.564;2022-09-27T00:08:02;1.00;;;0.80;;
4646;SDS011;2336;47.822;7.564;2022-09-27T00:10:29;0.70;;;0.70;;
4646;SDS011;2336;47.822;7.564;2022-09-27T00:12:56;0.80;;;0.80;;
4646;SDS011;2336;47.822;7.564;2022-09-27T00:15:23;0.80;;;0.80;;
4646;SDS011;2336;47.822;7.564;2022-09-27T00:17:50;0.97;;;0.87;;
4646;SDS011;2336;47.822;7.564;2022-09-27T00:20:17;0.70;;;0.70;;
4646;SDS011;2336;47.822;7.564;2022-09-27T00:22:46;0.70;;;0.70;;
4646;SDS011;2336;47.822;7.564;2022-09-27T00:25:14;0.80;;;0.80;;
4646;SDS011;2336;47.822;7.564;2022-09-27T00:27:43;0.70;;;0.70;;
4646;SDS011;2336;47.822;7.564;2022-09-27T00:30:10;0.70;;;0.70;;
4646;SDS011;2336;47.822;7.564;2022-09-27T00:32:38;0.97;;;0.80;;
4646;SDS011;2336;47.822;7.564;2022-09-27T00:35:05;0.67;;;0.67;;
4646;SDS011;2336;47.822;7.564;2022-09-27T00:37:32;0.70;;;0.70;;
4646;SDS011;2336;47.822;7.564;2022-09-27T00:40:03;2.00;;;0.70;;
4646;SDS011;2336;47.822;7.564;2022-09-27T00:42:30;0.70;;;0.70;;
4646;SDS011;2336;47.822;7.564;2022-09-27T00:44:59;0.70;;;0.70;;
4646;SDS011;2336;47.822;7.564;2022-09-27T00:47:39;4.80;;;0.90;;
4646;SDS011;2336;47.822;7.564;2022-09-27T00:50:10;0.60;;;0.60;;
4646;SDS011;2336;47.822;7.564;2022-09-27T00:52:47;2.17;;;0.90;;
4646;SDS011;2336;47.822;7.564;2022-09-27T00:55:24;0.90;;;0.90;;
4646;SDS011;2336;47.822;7.564;2022-09-27T00:57:54;0.80;;;0.80;;
4646;SDS011;2336;47.822;7.564;2022-09-27T01:00:22;2.00;;;0.90;;
4646;SDS011;2336;47.822;7.564;2022-09-27T01:02:49;1.13;;;1.00;;
4646;SDS011;2336;47.822;7.564;2022-09-27T01:05:19;0.80;;;0.80;;
4646;SDS011;2336;47.822;7.564;2022-09-27T01:07:48;2.30;;;0.80;;
4646;SDS011;2336;47.822;7.564;2022-09-27T01:10:15;3.47;;;1.00;;
4646;SDS011;2336;47.822;7.564;2022-09-27T01:12:52;2.00;;;1.00;;
4646;SDS011;2336;47.822;7.564;2022-09-27T01:15:25;1.10;;;1.00;;
4646;SDS011;2336;47.822;7.564;2022-09-27T01:18:02;1.00;;;1.00;;
4646;SDS011;2336;47.822;7.564;2022-09-27T01:21:06;0.90;;;0.90;;
4646;SDS011;2336;47.822;7.564;2022-09-27T01:23:49;1.30;;;1.20;;
4646;SDS011;2336;47.822;7.564;2022-09-27T01:29:31;1.67;;;1.00;;
4646;SDS011;2336;47.822;7.564;2022-09-27T01:32:10;4.30;;;1.10;;
4646;SDS011;2336;47.822;7.564;2022-09-27T01:34:44;2.00;;;1.17;;
4646;SDS011;2336;47.822;7.564;2022-09-27T01:37:18;1.43;;;1.30;;
4646;SDS011;2336;47.822;7.564;2022-09-27T01:39:50;5.77;;;1.40;;
4646;SDS011;2336;47.822;7.564;2022-09-27T01:42:23;1.17;;;1.17;;
4646;SDS011;2336;47.822;7.564;2022-09-27T01:44:53;2.20;;;1.00;;
4646;SDS011;2336;47.822;7.564;2022-09-27T01:47:28;1.30;;;1.20;;
4646;SDS011;2336;47.822;7.564;2022-09-27T01:50:00;2.33;;;1.00;;
4646;SDS011;2336;47.822;7.564;2022-09-27T01:52:30;1.40;;;1.00;;
4646;SDS011;2336;47.822;7.564;2022-09-27T01:55:02;1.67;;;1.00;;
4646;SDS011;2336;47.822;7.564;2022-09-27T01:57:32;1.30;;;1.20;;
4646;SDS011;2336;47.822;7.564;2022-09-27T02:00:03;1.20;;;1.20;;
4646;SDS011;2336;47.822;7.564;2022-09-27T02:02:35;2.60;;;1.20;;
4646;SDS011;2336;47.822;7.564;2022-09-27T02:05:06;2.10;;;1.30;;
4646;SDS011;2336;47.822;7.564;2022-09-27T02:07:36;1.73;;;1.63;;
4646;SDS011;2336;47.822;7.564;2022-09-27T02:10:08;1.43;;;1.33;;
4646;SDS011;2336;47.822;7.564;2022-09-27T02:12:41;1.80;;;1.60;;
4646;SDS011;2336;47.822;7.564;2022-09-27T02:15:15;1.90;;;1.20;;
4646;SDS011;2336;47.822;7.564;2022-09-27T02:17:46;4.40;;;1.43;;
4646;SDS011;2336;47.822;7.564;2022-09-27T02:20:23;2.27;;;1.60;;
4646;SDS011;2336;47.822;7.564;2022-09-27T02:22:56;3.27;;;1.50;;
4646;SDS011;2336;47.822;7.564;2022-09-27T02:25:34;1.57;;;1.20;;
4646;SDS011;2336;47.822;7.564;2022-09-27T02:28:07;4.33;;;1.30;;
4646;SDS011;2336;47.822;7.564;2022-09-27T02:30:41;1.60;;;1.37;;
4646;SDS011;2336;47.822;7.564;2022-09-27T02:33:10;9.93;;;1.97;;
4646;SDS011;2336;47.822;7.564;2022-09-27T02:35:37;6.23;;;1.40;;
4646;SDS011;2336;47.822;7.564;2022-09-27T02:38:04;1.53;;;1.43;;
4646;SDS011;2336;47.822;7.564;2022-09-27T02:40:33;3.93;;;1.80;;
4646;SDS011;2336;47.822;7.564;2022-09-27T02:43:01;3.73;;;1.53;;
4646;SDS011;2336;47.822;7.564;2022-09-27T02:45:31;2.30;;;1.73;;
4646;SDS011;2336;47.822;7.564;2022-09-27T02:48:10;2.30;;;1.60;;
4646;SDS011;2336;47.822;7.564;2022-09-27T02:53:36;1.43;;;1.10;;
4646;SDS011;2336;47.822;7.564;2022-09-27T02:56:12;2.00;;;1.10;;
4646;SDS011;2336;47.822;7.564;2022-09-27T02:58:47;2.17;;;1.70;;
4646;SDS011;2336;47.822;7.564;2022-09-27T03:01:25;2.40;;;1.50;;
4646;SDS011;2336;47.822;7.564;2022-09-27T03:03:59;1.67;;;1.33;;
4646;SDS011;2336;47.822;7.564;2022-09-27T03:06:32;1.40;;;1.30;;
4646;SDS011;2336;47.822;7.564;2022-09-27T03:09:00;2.00;;;1.30;;
4646;SDS011;2336;47.822;7.564;2022-09-27T03:11:27;2.53;;;1.50;;
4646;SDS011;2336;47.822;7.564;2022-09-27T03:13:54;1.30;;;1.20;;
4646;SDS011;2336;47.822;7.564;2022-09-27T03:16:20;1.30;;;1.10;;
4646;SDS011;2336;47.822;7.564;2022-09-27T03:18:47;1.10;;;1.10;;
4646;SDS011;2336;47.822;7.564;2022-09-27T03:21:15;1.20;;;1.10;;
4646;SDS011;2336;47.822;7.564;2022-09-27T03:23:42;2.03;;;1.27;;
4646;SDS011;2336;47.822;7.564;2022-09-27T03:26:09;2.80;;;1.30;;
4646;SDS011;2336;47.822;7.564;2022-09-27T03:28:35;2.50;;;1.33;;
4646;SDS011;2336;47.822;7.564;2022-09-27T03:31:02;3.67;;;1.33;;
4646;SDS011;2336;47.822;7.564;2022-09-27T03:33:29;2.80;;;1.10;;
4646;SDS011;2336;47.822;7.564;2022-09-27T03:35:57;3.40;;;1.30;;
4646;SDS011;2336;47.822;7.564;2022-09-27T03:38:25;1.80;;;1.17;;
4646;SDS011;2336;47.822;7.564;2022-09-27T03:40:52;3.33;;;1.00;;
4646;SDS011;2336;47.822;7.564;2022-09-27T03:43:19;3.23;;;1.40;;
4646;SDS011;2336;47.822;7.564;2022-09-27T03:45:45;1.43;;;1.33;;
4646;SDS011;2336;47.822;7.564;2022-09-27T03:48:12;1.97;;;1.20;;
4646;SDS011;2336;47.822;7.564;2022-09-27T03:50:39;1.97;;;1.50;;
4646;SDS011;2336;47.822;7.564;2022-09-27T03:53:06;5.23;;;1.57;;
4646;SDS011;2336;47.822;7.564;2022-09-27T03:55:34;1.47;;;0.97;;
4646;SDS011;2336;47.822;7.564;2022-09-27T03:58:01;2.37;;;1.30;;
4646;SDS011;2336;47.822;7.564;2022-09-27T04:00:27;3.23;;;1.20;;
4646;SDS011;2336;47.822;7.564;2022-09-27T04:02:56;2.57;;;1.30;;
4646;SDS011;2336;47.822;7.564;2022-09-27T04:05:24;2.60;;;1.40;;
4646;SDS011;2336;47.822;7.564;2022-09-27T04:07:51;1.77;;;1.13;;
4646;SDS011;2336;47.822;7.564;2022-09-27T04:10:18;2.73;;;1.20;;
4646;SDS011;2336;47.822;7.564;2022-09-27T04:12:46;3.10;;;1.40;;
4646;SDS011;2336;47.822;7.564;2022-09-27T04:15:13;1.50;;;1.40;;
4646;SDS011;2336;47.822;7.564;2022-09-27T04:17:40;3.07;;;1.40;;
4646;SDS011;2336;47.822;7.564;2022-09-27T04:20:08;3.13;;;1.40;;
4646;SDS011;2336;47.822;7.564;2022-09-27T04:22:37;2.40;;;1.27;;
4646;SDS011;2336;47.822;7.564;2022-09-27T04:25:06;1.53;;;1.00;;
4646;SDS011;2336;47.822;7.564;2022-09-27T04:27:33;2.10;;;2.00;;
4646;SDS011;2336;47.822;7.564;2022-09-27T04:30:02;3.07;;;1.50;;
4646;SDS011;2336;47.822;7.564;2022-09-27T04:32:30;3.43;;;1.30;;
4646;SDS011;2336;47.822;7.564;2022-09-27T04:34:57;1.63;;;1.40;;
4646;SDS011;2336;47.822;7.564;2022-09-27T04:37:41;2.07;;;1.50;;
4646;SDS011;2336;47.822;7.564;2022-09-27T04:40:09;3.40;;;1.70;;
4646;SDS011;2336;47.822;7.564;2022-09-27T04:42:35;1.50;;;1.40;;
4646;SDS011;2336;47.822;7.564;2022-09-27T04:45:04;2.93;;;1.43;;
4646;SDS011;2336;47.822;7.564;2022-09-27T04:47:32;3.33;;;1.67;;
4646;SDS011;2336;47.822;7.564;2022-09-27T04:49:59;4.03;;;1.80;;
4646;SDS011;2336;47.822;7.564;2022-09-27T04:52:25;2.20;;;1.40;;
4646;SDS011;2336;47.822;7.564;2022-09-27T04:54:52;2.40;;;1.80;;
4646;SDS011;2336;47.822;7.564;2022-09-27T04:57:19;1.40;;;1.03;;
4646;SDS011;2336;47.822;7.564;2022-09-27T04:59:46;2.10;;;1.20;;
4646;SDS011;2336;47.822;7.564;2022-09-27T05:02:16;1.00;;;0.90;;
4646;SDS011;2336;47.822;7.564;2022-09-27T05:04:43;0.90;;;0.90;;
4646;SDS011;2336;47.822;7.564;2022-09-27T05:07:10;2.83;;;0.97;;
4646;SDS011;2336;47.822;7.564;2022-09-27T05:09:37;0.70;;;0.60;;
4646;SDS011;2336;47.822;7.564;2022-09-27T05:12:04;0.83;;;0.83;;
4646;SDS011;2336;47.822;7.564;2022-09-27T05:14:32;0.77;;;0.77;;
4646;SDS011;2336;47.822;7.564;2022-09-27T05:16:59;3.03;;;1.30;;
4646;SDS011;2336;47.822;7.564;2022-09-27T05:19:27;1.00;;;0.90;;
4646;SDS011;2336;47.822;7.564;2022-09-27T05:21:54;2.37;;;1.00;;
4646;SDS011;2336;47.822;7.564;2022-09-27T05:24:21;5.50;;;1.20;;
4646;SDS011;2336;47.822;7.564;2022-09-27T05:26:48;4.77;;;1.50;;
4646;SDS011;2336;47.822;7.564;2022-09-27T05:29:15;1.20;;;1.13;;
4646;SDS011;2336;47.822;7.564;2022-09-27T05:31:42;1.27;;;1.17;;
4646;SDS011;2336;47.822;7.564;2022-09-27T05:34:08;5.03;;;1.83;;
4646;SDS011;2336;47.822;7.564;2022-09-27T05:36:38;1.27;;;1.10;;
4646;SDS011;2336;47.822;7.564;2022-09-27T05:39:05;1.60;;;1.30;;
4646;SDS011;2336;47.822;7.564;2022-09-27T05:41:32;4.00;;;2.30;;
4646;SDS011;2336;47.822;7.564;2022-09-27T05:43:59;2.90;;;2.27;;
4646;SDS011;2336;47.822;7.564;2022-09-27T05:46:26;2.93;;;2.13;;
4646;SDS011;2336;47.822;7.564;2022-09-27T05:48:53;2.53;;;2.33;;
4646;SDS011;2336;47.822;7.564;2022-09-27T05:51:19;1.67;;;1.60;;
4646;SDS011;2336;47.822;7.564;2022-09-27T05:53:48;1.80;;;1.70;;
4646;SDS011;2336;47.822;7.564;2022-09-27T05:56:14;3.20;;;1.40;;
4646;SDS011;2336;47.822;7.564;2022-09-27T05:58:42;4.80;;;1.70;;
4646;SDS011;2336;47.822;7.564;2022-09-27T06:01:09;2.03;;;1.33;;
4646;SDS011;2336;47.822;7.564;2022-09-27T06:03:36;2.97;;;2.60;;
4646;SDS011;2336;47.822;7.564;2022-09-27T06:06:05;3.57;;;3.23;;
4646;SDS011;2336;47.822;7.564;2022-09-27T06:08:35;8.20;;;4.20;;
4646;SDS011;2336;47.822;7.564;2022-09-27T06:11:05;4.00;;;2.73;;
4646;SDS011;2336;47.822;7.564;2022-09-27T06:13:33;2.00;;;1.70;;
4646;SDS011;2336;47.822;7.564;2022-09-27T06:16:01;1.53;;;1.30;;
4646;SDS011;2336;47.822;7.564;2022-09-27T06:18:28;3.00;;;2.03;;
4646;SDS011;2336;47.822;7.564;2022-09-27T06:20:57;1.80;;;1.70;;
4646;SDS011;2336;47.822;7.564;2022-09-27T06:23:24;1.50;;;1.40;;
4646;SDS011;2336;47.822;7.564;2022-09-27T06:25:51;2.37;;;1.40;;
4646;SDS011;2336;47.822;7.564;2022-09-27T06:28:20;2.70;;;1.70;;
4646;SDS011;2336;47.822;7.564;2022-09-27T06:30:48;2.13;;;1.77;;
4646;SDS011;2336;47.822;7.564;2022-09-27T06:33:16;3.40;;;1.73;;
4646;SDS011;2336;47.822;7.564;2022-09-27T06:35:44;1.83;;;1.53;;
4646;SDS011;2336;47.822;7.564;2022-09-27T06:38:13;1.40;;;1.40;;
4646;SDS011;2336;47.822;7.564;2022-09-27T06:40:41;4.30;;;1.83;;
4646;SDS011;2336;47.822;7.564;2022-09-27T06:43:09;2.27;;;1.60;;
4646;SDS011;2336;47.822;7.564;2022-09-27T06:45:39;4.80;;;1.47;;
4646;SDS011;2336;47.822;7.564;2022-09-27T06:48:07;2.53;;;1.10;;
4646;SDS011;2336;47.822;7.564;2022-09-27T06:50:37;4.90;;;1.50;;
4646;SDS011;2336;47.822;7.564;2022-09-27T06:53:05;2.50;;;2.07;;
4646;SDS011;2336;47.822;7.564;2022-09-27T06:55:34;4.33;;;2.10;;
4646;SDS011;2336;47.822;7.564;2022-09-27T06:58:02;1.30;;;1.30;;
4646;SDS011;2336;47.822;7.564;2022-09-27T07:00:49;1.93;;;1.77;;
4646;SDS011;2336;47.822;7.564;2022-09-27T07:03:17;1.90;;;1.80;;
4646;SDS011;2336;47.822;7.564;2022-09-27T07:05:53;5.43;;;1.80;;
4646;SDS011;2336;47.822;7.564;2022-09-27T07:08:21;2.57;;;1.90;;
4646;SDS011;2336;47.822;7.564;2022-09-27T07:10:49;2.10;;;1.60;;
4646;SDS011;2336;47.822;7.564;2022-09-27T07:13:17;2.10;;;1.80;;
4646;SDS011;2336;47.822;7.564;2022-09-27T07:15:44;2.40;;;1.73;;
4646;SDS011;2336;47.822;7.564;2022-09-27T07:18:12;1.90;;;1.50;;
4646;SDS011;2336;47.822;7.564;2022-09-27T07:20:39;5.10;;;1.90;;
4646;SDS011;2336;47.822;7.564;2022-09-27T07:23:06;3.50;;;2.37;;
4646;SDS011;2336;47.822;7.564;2022-09-27T07:25:34;5.00;;;2.03;;
4646;SDS011;2336;47.822;7.564;2022-09-27T07:28:01;3.43;;;2.23;;
4646;SDS011;2336;47.822;7.564;2022-09-27T07:30:29;6.50;;;2.27;;
4646;SDS011;2336;47.822;7.564;2022-09-27T07:32:56;3.57;;;2.00;;
4646;SDS011;2336;47.822;7.564;2022-09-27T07:35:25;7.10;;;2.57;;
4646;SDS011;2336;47.822;7.564;2022-09-27T07:37:52;4.77;;;2.37;;
4646;SDS011;2336;47.822;7.564;2022-09-27T07:40:20;2.20;;;2.10;;
4646;SDS011;2336;47.822;7.564;2022-09-27T07:42:52;4.10;;;2.37;;
4646;SDS011;2336;47.822;7.564;2022-09-27T07:45:20;2.80;;;2.13;;
4646;SDS011;2336;47.822;7.564;2022-09-27T07:47:47;2.80;;;1.90;;
4646;SDS011;2336;47.822;7.564;2022-09-27T07:50:14;2.80;;;2.50;;
4646;SDS011;2336;47.822;7.564;2022-09-27T07:52:43;3.57;;;2.30;;
4646;SDS011;2336;47.822;7.564;2022-09-27T07:55:11;4.80;;;2.43;;
4646;SDS011;2336;47.822;7.564;2022-09-27T07:57:39;3.90;;;2.10;;
4646;SDS011;2336;47.822;7.564;2022-09-27T08:00:08;2.93;;;2.00;;
4646;SDS011;2336;47.822;7.564;2022-09-27T08:02:37;4.60;;;2.13;;
4646;SDS011;2336;47.822;7.564;2022-09-27T08:05:04;3.13;;;1.90;;
4646;SDS011;2336;47.822;7.564;2022-09-27T08:07:31;3.90;;;1.67;;
4646;SDS011;2336;47.822;7.564;2022-09-27T08:09:59;2.80;;;1.47;;
4646;SDS011;2336;47.822;7.564;2022-09-27T08:12:26;3.57;;;1.53;;
4646;SDS011;2336;47.822;7.564;2022-09-27T08:14:53;3.93;;;1.77;;
4646;SDS011;2336;47.822;7.564;2022-09-27T08:17:22;5.53;;;1.60;;
4646;SDS011;2336;47.822;7.564;2022-09-27T08:19:49;4.70;;;1.90;;
4646;SDS011;2336;47.822;7.564;2022-09-27T08:22:16;2.10;;;1.90;;
4646;SDS011;2336;47.822;7.564;2022-09-27T08:24:45;1.70;;;1.60;;
4646;SDS011;2336;47.822;7.564;2022-09-27T08:27:13;3.13;;;1.70;;
4646;SDS011;2336;47.822;7.564;2022-09-27T08:29:40;4.30;;;2.20;;
4646;SDS011;2336;47.822;7.564;2022-09-27T08:32:06;3.07;;;2.03;;
4646;SDS011;2336;47.822;7.564;2022-09-27T08:34:33;4.50;;;1.63;;
4646;SDS011;2336;47.822;7.564;2022-09-27T08:37:00;3.17;;;1.80;;
4646;SDS011;2336;47.822;7.564;2022-09-27T08:39:27;1.80;;;1.70;;
4646;SDS011;2336;47.822;7.564;2022-09-27T08:41:56;6.47;;;2.13;;
4646;SDS011;2336;47.822;7.564;2022-09-27T08:44:32;4.00;;;1.97;;
4646;SDS011;2336;47.822;7.564;2022-09-27T08:47:10;3.83;;;1.63;;
4646;SDS011;2336;47.822;7.564;2022-09-27T08:49:42;1.87;;;1.40;;
4646;SDS011;2336;47.822;7.564;2022-09-27T08:52:15;2.83;;;1.80;;
4646;SDS011;2336;47.822;7.564;2022-09-27T08:54:44;1.60;;;1.50;;
4646;SDS011;2336;47.822;7.564;2022-09-27T08:57:13;4.77;;;2.00;;
4646;SDS011;2336;47.822;7.564;2022-09-27T08:59:42;2.30;;;1.90;;
4646;SDS011;2336;47.822;7.564;2022-09-27T09:02:16;1.70;;;1.60;;
4646;SDS011;2336;47.822;7.564;2022-09-27T09:04:44;3.03;;;1.93;;
4646;SDS011;2336;47.822;7.564;2022-09-27T09:07:16;3.50;;;1.73;;
4646;SDS011;2336;47.822;7.564;2022-09-27T09:09:53;3.17;;;1.87;;
4646;SDS011;2336;47.822;7.564;2022-09-27T09:12:32;4.57;;;1.60;;
4646;SDS011;2336;47.822;7.564;2022-09-27T09:15:15;2.57;;;1.30;;
4646;SDS011;2336;47.822;7.564;2022-09-27T09:18:10;5.13;;;1.40;;
4646;SDS011;2336;47.822;7.564;2022-09-27T09:20:53;2.30;;;1.23;;
4646;SDS011;2336;47.822;7.564;2022-09-27T09:23:32;1.40;;;1.30;;
4646;SDS011;2336;47.822;7.564;2022-09-27T09:26:08;3.57;;;1.00;;
4646;SDS011;2336;47.822;7.564;2022-09-27T09:28:46;1.57;;;1.10;;
4646;SDS011;2336;47.822;7.564;2022-09-27T09:31:25;2.63;;;1.20;;
4646;SDS011;2336;47.822;7.564;2022-09-27T09:34:00;1.07;;;0.93;;
4646;SDS011;2336;47.822;7.564;2022-09-27T09:36:33;0.90;;;0.90;;
4646;SDS011;2336;47.822;7.564;2022-09-27T09:39:07;3.50;;;0.90;;
4646;SDS011;2336;47.822;7.564;2022-09-27T09:41:39;1.57;;;0.90;;
4646;SDS011;2336;47.822;7.564;2022-09-27T09:44:09;0.70;;;0.70;;
4646;SDS011;2336;47.822;7.564;2022-09-27T09:46:44;0.80;;;0.80;;
4646;SDS011;2336;47.822;7.564;2022-09-27T09:49:14;1.03;;;0.90;;
4646;SDS011;2336;47.822;7.564;2022-09-27T09:51:44;5.57;;;1.10;;
4646;SDS011;2336;47.822;7.564;2022-09-27T09:54:14;2.07;;;0.80;;
4646;SDS011;2336;47.822;7.564;2022-09-27T09:56:47;1.33;;;0.80;;
4646;SDS011;2336;47.822;7.564;2022-09-27T09:59:22;0.60;;;0.60;;
4646;SDS011;2336;47.822;7.564;2022-09-27T10:01:54;0.60;;;0.60;;
4646;SDS011;2336;47.822;7.564;2022-09-27T10:04:26;1.77;;;0.80;;
4646;SDS011;2336;47.822;7.564;2022-09-27T10:06:54;0.80;;;0.80;;
4646;SDS011;2336;47.822;7.564;2022-09-27T10:09:24;0.87;;;0.80;;
4646;SDS011;2336;47.822;7.564;2022-09-27T10:11:53;0.77;;;0.60;;
4646;SDS011;2336;47.822;7.564;2022-09-27T10:14:20;0.60;;;0.60;;
4646;SDS011;2336;47.822;7.564;2022-09-27T10:16:48;3.77;;;0.70;;
4646;SDS011;2336;47.822;7.564;2022-09-27T10:19:21;1.53;;;0.70;;
4646;SDS011;2336;47.822;7.564;2022-09-27T10:21:54;0.87;;;0.70;;
4646;SDS011;2336;47.822;7.564;2022-09-27T10:24:27;1.43;;;1.00;;
4646;SDS011;2336;47.822;7.564;2022-09-27T10:26:56;2.30;;;0.90;;
4646;SDS011;2336;47.822;7.564;2022-09-27T10:29:28;0.83;;;0.70;;
4646;SDS011;2336;47.822;7.564;2022-09-27T10:31:56;1.27;;;0.90;;
4646;SDS011;2336;47.822;7.564;2022-09-27T10:34:27;1.67;;;1.10;;
4646;SDS011;2336;47.822;7.564;2022-09-27T10:37:02;1.60;;;1.00;;
4646;SDS011;2336;47.822;7.564;2022-09-27T10:39:41;1.63;;;1.20;;
4646;SDS011;2336;47.822;7.564;2022-09-27T10:44:57;2.57;;;1.07;;
4646;SDS011;2336;47.822;7.564;2022-09-27T10:47:32;1.97;;;1.10;;
4646;SDS011;2336;47.822;7.564;2022-09-27T10:50:03;1.17;;;1.07;;
4646;SDS011;2336;47.822;7.564;2022-09-27T10:52:31;1.90;;;1.07;;
4646;SDS011;2336;47.822;7.564;2022-09-27T10:54:59;2.20;;;1.10;;
4646;SDS011;2336;47.822;7.564;2022-09-27T10:57:31;1.20;;;0.90;;
4646;SDS011;2336;47.822;7.564;2022-09-27T10:59:58;1.23;;;1.13;;
4646;SDS011;2336;47.822;7.564;2022-09-27T11:02:30;1.90;;;1.00;;
4646;SDS011;2336;47.822;7.564;2022-09-27T11:05:04;1.03;;;1.03;;
4646;SDS011;2336;47.822;7.564;2022-09-27T11:07:35;2.40;;;1.00;;
4646;SDS011;2336;47.822;7.564;2022-09-27T11:10:18;1.57;;;0.87;;
4646;SDS011;2336;47.822;7.564;2022-09-27T11:13:04;4.10;;;1.10;;
4646;SDS011;2336;47.822;7.564;2022-09-27T11:15:39;1.67;;;1.23;;
4646;SDS011;2336;47.822;7.564;2022-09-27T11:18:19;3.50;;;1.47;;
4646;SDS011;2336;47.822;7.564;2022-09-27T11:20:57;1.73;;;1.60;;
4646;SDS011;2336;47.822;7.564;2022-09-27T11:23:38;3.57;;;1.70;;
4646;SDS011;2336;47.822;7.564;2022-09-27T11:26:17;3.53;;;1.40;;
4646;SDS011;2336;47.822;7.564;2022-09-27T11:29:00;4.10;;;2.03;;
4646;SDS011;2336;47.822;7.564;2022-09-27T11:31:44;3.67;;;1.63;;
4646;SDS011;2336;47.822;7.564;2022-09-27T11:34:22;1.33;;;1.20;;
4646;SDS011;2336;47.822;7.564;2022-09-27T11:37:04;3.30;;;1.50;;
4646;SDS011;2336;47.822;7.564;2022-09-27T11:39:40;1.87;;;1.60;;
4646;SDS011;2336;47.822;7.564;2022-09-27T11:45:25;4.00;;;1.70;;
4646;SDS011;2336;47.822;7.564;2022-09-27T11:48:04;1.53;;;1.53;;
4646;SDS011;2336;47.822;7.564;2022-09-27T11:50:45;1.57;;;1.37;;
4646;SDS011;2336;47.822;7.564;2022-09-27T11:53:27;1.63;;;1.47;;
4646;SDS011;2336;47.822;7.564;2022-09-27T11:56:02;1.83;;;1.30;;
4646;SDS011;2336;47.822;7.564;2022-09-27T11:58:38;3.13;;;1.17;;
4646;SDS011;2336;47.822;7.564;2022-09-27T12:01:17;1.03;;;0.93;;
4646;SDS011;2336;47.822;7.564;2022-09-27T12:07:09;0.97;;;0.97;;
4646;SDS011;2336;47.822;7.564;2022-09-27T12:09:44;1.90;;;0.70;;
4646;SDS011;2336;47.822;7.564;2022-09-27T12:12:16;1.00;;;0.80;;
4646;SDS011;2336;47.822;7.564;2022-09-27T12:14:46;1.13;;;0.73;;
4646;SDS011;2336;47.822;7.564;2022-09-27T12:17:17;0.60;;;0.60;;
4646;SDS011;2336;47.822;7.564;2022-09-27T12:19:48;1.33;;;0.70;;
4646;SDS011;2336;47.822;7.564;2022-09-27T12:22:18;0.83;;;0.83;;
4646;SDS011;2336;47.822;7.564;2022-09-27T12:24:50;1.13;;;1.00;;
4646;SDS011;2336;47.822;7.564;2022-09-27T12:27:18;1.63;;;0.70;;
4646;SDS011;2336;47.822;7.564;2022-09-27T12:29:52;1.13;;;0.60;;
4646;SDS011;2336;47.822;7.564;2022-09-27T12:32:23;0.60;;;0.60;;
4646;SDS011;2336;47.822;7.564;2022-09-27T12:34:53;1.03;;;0.80;;
4646;SDS011;2336;47.822;7.564;2022-09-27T12:37:26;1.33;;;0.90;;
4646;SDS011;2336;47.822;7.564;2022-09-27T12:39:59;1.03;;;0.80;;
4646;SDS011;2336;47.822;7.564;2022-09-27T12:42:30;1.33;;;0.80;;
4646;SDS011;2336;47.822;7.564;2022-09-27T12:45:02;1.77;;;0.87;;
4646;SDS011;2336;47.822;7.564;2022-09-27T12:50:23;0.90;;;0.90;;
4646;SDS011;2336;47.822;7.564;2022-09-27T12:53:00;0.97;;;0.90;;
4646;SDS011;2336;47.822;7.564;2022-09-27T13:01:50;2.03;;;1.00;;
4646;SDS011;2336;47.822;7.564;2022-09-27T13:04:34;0.80;;;0.80;;
4646;SDS011;2336;47.822;7.564;2022-09-27T13:07:14;3.80;;;0.90;;
4646;SDS011;2336;47.822;7.564;2022-09-27T13:12:48;0.93;;;0.93;;
4646;SDS011;2336;47.822;7.564;2022-09-27T13:15:20;1.50;;;1.00;;
4646;SDS011;2336;47.822;7.564;2022-09-27T13:17:52;1.30;;;1.20;;
4646;SDS011;2336;47.822;7.564;2022-09-27T13:26:42;1.37;;;1.27;;
4646;SDS011;2336;47.822;7.564;2022-09-27T13:29:30;4.10;;;1.47;;
4646;SDS011;2336;47.822;7.564;2022-09-27T13:34:45;2.17;;;2.07;;
4646;SDS011;2336;47.822;7.564;2022-09-27T13:40:25;1.00;;;1.00;;
4646;SDS011;2336;47.822;7.564;2022-09-27T13:43:04;0.70;;;0.70;;
4646;SDS011;2336;47.822;7.564;2022-09-27T13:45:53;1.10;;;1.00;;
4646;SDS011;2336;47.822;7.564;2022-09-27T13:48:24;0.80;;;0.80;;
4646;SDS011;2336;47.822;7.564;2022-09-27T13:50:58;1.03;;;0.93;;
4646;SDS011;2336;47.822;7.564;2022-09-27T13:53:29;0.97;;;0.77;;
4646;SDS011;2336;47.822;7.564;2022-09-27T13:55:59;0.57;;;0.57;;
4646;SDS011;2336;47.822;7.564;2022-09-27T13:58:29;0.50;;;0.50;;
4646;SDS011;2336;47.822;7.564;2022-09-27T14:01:10;1.07;;;0.43;;
4646;SDS011;2336;47.822;7.564;2022-09-27T14:03:45;0.50;;;0.50;;
4646;SDS011;2336;47.822;7.564;2022-09-27T14:06:15;2.23;;;2.10;;
4646;SDS011;2336;47.822;7.564;2022-09-27T14:08:45;1.00;;;0.90;;
4646;SDS011;2336;47.822;7.564;2022-09-27T14:11:14;0.60;;;0.60;;
4646;SDS011;2336;47.822;7.564;2022-09-27T14:13:45;1.83;;;1.67;;
4646;SDS011;2336;47.822;7.564;2022-09-27T14:16:15;1.47;;;1.30;;
4646;SDS011;2336;47.822;7.564;2022-09-27T14:18:45;2.80;;;2.60;;
4646;SDS011;2336;47.822;7.564;2022-09-27T14:21:17;0.63;;;0.60;;
4646;SDS011;2336;47.822;7.564;2022-09-27T14:23:51;1.33;;;0.77;;
4646;SDS011;2336;47.822;7.564;2022-09-27T14:26:20;0.40;;;0.40;;
4646;SDS011;2336;47.822;7.564;2022-09-27T14:28:48;0.60;;;0.60;;
4646;SDS011;2336;47.822;7.564;2022-09-27T14:31:17;0.50;;;0.50;;
4646;SDS011;2336;47.822;7.564;2022-09-27T14:33:47;1.67;;;0.50;;
4646;SDS011;2336;47.822;7.564;2022-09-27T14:36:18;0.50;;;0.50;;
4646;SDS011;2336;47.822;7.564;2022-09-27T14:39:13;0.67;;;0.60;;
4646;SDS011;2336;47.822;7.564;2022-09-27T14:41:41;0.70;;;0.50;;
4646;SDS011;2336;47.822;7.564;2022-09-27T14:44:18;0.67;;;0.67;;
4646;SDS011;2336;47.822;7.564;2022-09-27T14:46:47;0.67;;;0.67;;
4646;SDS011;2336;47.822;7.564;2022-09-27T14:49:33;2.73;;;0.73;;
4646;SDS011;2336;47.822;7.564;2022-09-27T14:52:00;0.77;;;0.60;;
4646;SDS011;2336;47.822;7.564;2022-09-27T14:54:27;0.70;;;0.67;;
4646;SDS011;2336;47.822;7.564;2022-09-27T14:56:56;0.60;;;0.60;;
4646;SDS011;2336;47.822;7.564;2022-09-27T14:59:25;1.03;;;0.70;;
4646;SDS011;2336;47.822;7.564;2022-09-27T15:01:57;0.50;;;0.50;;
4646;SDS011;2336;47.822;7.564;2022-09-27T15:04:26;0.53;;;0.53;;
4646;SDS011;2336;47.822;7.564;2022-09-27T15:06:55;0.70;;;0.60;;
4646;SDS011;2336;47.822;7.564;2022-09-27T15:09:22;0.70;;;0.60;;
4646;SDS011;2336;47.822;7.564;2022-09-27T15:11:52;0.80;;;0.60;;
4646;SDS011;2336;47.822;7.564;2022-09-27T15:14:20;0.60;;;0.60;;
4646;SDS011;2336;47.822;7.564;2022-09-27T15:16:48;1.57;;;0.60;;
4646;SDS011;2336;47.822;7.564;2022-09-27T15:19:21;0.70;;;0.60;;
4646;SDS011;2336;47.822;7.564;2022-09-27T15:21:49;0.60;;;0.60;;
4646;SDS011;2336;47.822;7.564;2022-09-27T15:24:35;0.50;;;0.50;;
4646;SDS011;2336;47.822;7.564;2022-09-27T15:27:03;2.30;;;0.60;;
4646;SDS011;2336;47.822;7.564;2022-09-27T15:29:38;0.50;;;0.50;;
4646;SDS011;2336;47.822;7.564;2022-09-27T15:32:05;1.70;;;0.67;;
4646;SDS011;2336;47.822;7.564;2022-09-27T15:34:34;0.80;;;0.60;;
4646;SDS011;2336;47.822;7.564;2022-09-27T15:37:02;1.47;;;0.50;;
4646;SDS011;2336;47.822;7.564;2022-09-27T15:39:30;0.70;;;0.50;;
4646;SDS011;2336;47.822;7.564;2022-09-27T15:42:00;0.83;;;0.53;;
4646;SDS011;2336;47.822;7.564;2022-09-27T15:44:45;0.93;;;0.50;;
4646;SDS011;2336;47.822;7.564;2022-09-27T15:53:01;0.93;;;0.50;;
4646;SDS011;2336;47.822;7.564;2022-09-27T15:55:31;0.77;;;0.77;;
4646;SDS011;2336;47.822;7.564;2022-09-27T15:58:02;2.20;;;0.70;;
4646;SDS011;2336;47.822;7.564;2022-09-27T16:00:32;2.00;;;1.90;;
4646;SDS011;2336;47.822;7.564;2022-09-27T16:02:59;3.60;;;3.40;;
4646;SDS011;2336;47.822;7.564;2022-09-27T16:05:26;0.50;;;0.50;;
4646;SDS011;2336;47.822;7.564;2022-09-27T16:07:55;0.60;;;0.60;;
4646;SDS011;2336;47.822;7.564;2022-09-27T16:10:25;2.00;;;0.60;;
4646;SDS011;2336;47.822;7.564;2022-09-27T16:12:57;0.60;;;0.60;;
4646;SDS011;2336;47.822;7.564;2022-09-27T16:15:24;1.13;;;1.13;;
4646;SDS011;2336;47.822;7.564;2022-09-27T16:17:51;0.70;;;0.70;;
4646;SDS011;2336;47.822;7.564;2022-09-27T16:20:19;2.53;;;0.67;;
4646;SDS011;2336;47.822;7.564;2022-09-27T16:22:49;3.30;;;3.00;;